Time;durP1;ratioP1;P1;durP2;ratioP2;P2;SDS_P1;SDS_P2;PMS_P1;PMS_P2;Temp;Humidity;BMP_temperature;BMP_pressure;BME280_temperature;BME280_humidity;BME280_pressure;Samples;Min_cycle;Max_cycle;Signal;HPM_P1;HPM_P2
2023/10/05 00:00:39;;;;;;;22.58;3.55;;;;;;;;;;5030502;28;20519;-73
2023/10/05 00:03:06;;;;;;;18.30;3.27;;;;;;;;;;5030477;28;20764;-73
2023/10/05 00:05:36;;;;;;;23.98;3.40;;;;;;;;;;5015302;28;20915;-75
2023/10/05 00:08:07;;;;;;;22.88;3.70;;;;;;;;;;5031162;28;20799;-74
2023/10/05 00:10:34;;;;;;;22.77;3.53;;;;;;;;;;5022760;28;20411;-76
2023/10/05 00:13:05;;;;;;;953.85;223.63;;;;;;;;;;5030517;28;20438;-76
2023/10/05 00:15:36;;;;;;;23.33;3.40;;;;;;;;;;5030011;28;20407;-76
2023/10/05 00:18:05;;;;;;;23.15;2.80;;;;;;;;;;5046908;28;20403;-75
2023/10/05 00:20:38;;;;;;;23.92;3.45;;;;;;;;;;5035039;28;20423;-76
2023/10/05 00:23:08;;;;;;;24.08;3.35;;;;;;;;;;5030050;28;20833;-76
2023/10/05 00:25:37;;;;;;;34.78;4.10;;;;;;;;;;5014742;28;20410;-75
2023/10/05 00:28:05;;;;;;;24.15;3.50;;;;;;;;;;5035693;28;20403;-75
2023/10/05 00:30:31;;;;;;;24.25;3.10;;;;;;;;;;5029922;28;20407;-76
2023/10/05 00:33:00;;;;;;;21.70;3.00;;;;;;;;;;5035909;28;20506;-76
2023/10/05 00:35:32;;;;;;;21.55;3.60;;;;;;;;;;5026913;28;20776;-77
2023/10/05 00:38:11;;;;;;;23.17;3.70;;;;;;;;;;5046097;28;20421;-77
2023/10/05 00:40:42;;;;;;;20.58;3.30;;;;;;;;;;5029660;28;20779;-78
2023/10/05 00:43:24;;;;;;;22.58;3.22;;;;;;;;;;5026444;28;20890;-76
2023/10/05 00:45:51;;;;;;;20.83;3.50;;;;;;;;;;5045311;28;20436;-77
2023/10/05 00:48:28;;;;;;;23.42;3.47;;;;;;;;;;5036482;28;20423;-76
2023/10/05 00:53:56;;;;;;;20.35;3.15;;;;;;;;;;4980661;28;20446;-77
2023/10/05 00:56:24;;;;;;;25.02;3.90;;;;;;;;;;5037863;28;20462;-75
2023/10/05 00:58:55;;;;;;;22.30;3.03;;;;;;;;;;5030984;28;20410;-76
2023/10/05 01:01:24;;;;;;;24.40;4.10;;;;;;;;;;5034929;28;20423;-76
2023/10/05 01:06:54;;;;;;;26.13;3.20;;;;;;;;;;5044667;28;20904;-74
2023/10/05 01:12:20;;;;;;;28.02;3.28;;;;;;;;;;5030490;28;20851;-72
2023/10/05 01:14:53;;;;;;;85.28;23.60;;;;;;;;;;5046386;28;20415;-74
2023/10/05 01:17:21;;;;;;;57.13;3.60;;;;;;;;;;5033391;28;20886;-75
2023/10/05 01:19:53;;;;;;;57.95;4.30;;;;;;;;;;5035344;28;20908;-76
2023/10/05 01:22:22;;;;;;;58.88;3.90;;;;;;;;;;5033383;28;20912;-75
2023/10/05 01:24:50;;;;;;;56.45;4.10;;;;;;;;;;5034421;28;20942;-73
2023/10/05 01:27:17;;;;;;;57.70;3.40;;;;;;;;;;5019625;28;20417;-74
2023/10/05 01:29:43;;;;;;;59.35;3.80;;;;;;;;;;5032913;28;20429;-72
2023/10/05 01:32:10;;;;;;;57.53;4.13;;;;;;;;;;5033968;28;20811;-76
2023/10/05 01:34:37;;;;;;;56.33;3.67;;;;;;;;;;5024019;28;20430;-76
2023/10/05 01:37:05;;;;;;;61.27;3.70;;;;;;;;;;5040188;28;20580;-76
2023/10/05 01:39:35;;;;;;;57.72;3.60;;;;;;;;;;5031073;28;20445;-75
2023/10/05 01:42:06;;;;;;;56.67;3.38;;;;;;;;;;5042737;28;20470;-75
2023/10/05 01:44:38;;;;;;;61.13;4.15;;;;;;;;;;5040220;28;20481;-75
2023/10/05 01:47:05;;;;;;;56.17;3.42;;;;;;;;;;5042732;28;20934;-75
2023/10/05 01:49:32;;;;;;;56.03;3.67;;;;;;;;;;5034176;28;20466;-74
2023/10/05 01:51:59;;;;;;;57.40;3.42;;;;;;;;;;5033792;28;20442;-76
2023/10/05 01:54:28;;;;;;;58.28;3.65;;;;;;;;;;5032647;28;20417;-75
2023/10/05 01:57:01;;;;;;;58.03;4.20;;;;;;;;;;5035216;28;20407;-75
2023/10/05 01:59:33;;;;;;;56.20;4.25;;;;;;;;;;5052413;28;20415;-75
2023/10/05 02:02:01;;;;;;;54.58;3.70;;;;;;;;;;5035528;28;20451;-76
2023/10/05 02:04:29;;;;;;;56.70;4.00;;;;;;;;;;5042204;28;20403;-76
2023/10/05 02:06:56;;;;;;;56.83;4.38;;;;;;;;;;5030667;28;20439;-75
2023/10/05 02:09:23;;;;;;;53.17;3.30;;;;;;;;;;5041788;28;20421;-73
2023/10/05 02:11:52;;;;;;;53.97;3.65;;;;;;;;;;5032179;28;20423;-76
2023/10/05 02:14:19;;;;;;;54.47;3.10;;;;;;;;;;5042656;28;20464;-75
2023/10/05 02:16:50;;;;;;;52.20;3.45;;;;;;;;;;5006993;28;20463;-75
2023/10/05 02:19:17;;;;;;;19.05;3.00;;;;;;;;;;5034208;28;20879;-74
2023/10/05 02:21:46;;;;;;;46.97;16.63;;;;;;;;;;5033728;28;20404;-75
2023/10/05 02:24:18;;;;;;;20.83;2.83;;;;;;;;;;5034369;28;20507;-74
2023/10/05 02:29:29;;;;;;;20.75;3.50;;;;;;;;;;5030510;28;20413;-76
2023/10/05 02:34:42;;;;;;;20.37;4.00;;;;;;;;;;5032674;28;20525;-75
2023/10/05 02:37:11;;;;;;;19.47;3.83;;;;;;;;;;5031783;28;20523;-74
2023/10/05 02:39:39;;;;;;;19.40;3.08;;;;;;;;;;5049532;28;20764;-75
2023/10/05 02:42:11;;;;;;;22.38;3.17;;;;;;;;;;5049557;28;21192;-75
2023/10/05 02:44:38;;;;;;;18.83;3.55;;;;;;;;;;5018118;28;20522;-76
2023/10/05 02:47:08;;;;;;;20.83;3.20;;;;;;;;;;5031071;28;20411;-75
2023/10/05 02:49:40;;;;;;;21.63;3.00;;;;;;;;;;5033097;28;20954;-75
2023/10/05 02:52:06;;;;;;;20.15;9.32;;;;;;;;;;5032251;28;20473;-78
2023/10/05 02:54:36;;;;;;;19.75;3.00;;;;;;;;;;5031053;28;21121;-74
2023/10/05 02:57:05;;;;;;;18.47;3.60;;;;;;;;;;5032380;28;20970;-75
2023/10/05 02:59:34;;;;;;;19.63;2.70;;;;;;;;;;5031883;28;20422;-75
2023/10/05 03:02:06;;;;;;;20.23;3.15;;;;;;;;;;5031473;28;20481;-74
2023/10/05 03:04:44;;;;;;;19.67;3.10;;;;;;;;;;5031920;28;20438;-75
2023/10/05 03:07:17;;;;;;;19.83;3.15;;;;;;;;;;5029522;28;20431;-72
2023/10/05 03:09:46;;;;;;;19.98;3.70;;;;;;;;;;5029969;28;20956;-75
2023/10/05 03:12:13;;;;;;;29.27;12.77;;;;;;;;;;5029737;28;20418;-75
2023/10/05 03:14:44;;;;;;;23.10;2.90;;;;;;;;;;5038395;28;20782;-75
2023/10/05 03:17:19;;;;;;;20.38;2.35;;;;;;;;;;5033721;28;20411;-75
2023/10/05 03:19:48;;;;;;;18.70;2.50;;;;;;;;;;5046288;28;20409;-76
2023/10/05 03:22:15;;;;;;;19.08;2.83;;;;;;;;;;5021452;28;20984;-74
2023/10/05 03:24:44;;;;;;;19.80;3.35;;;;;;;;;;5031021;28;20446;-75
2023/10/05 03:27:12;;;;;;;18.33;2.90;;;;;;;;;;5045125;28;20410;-76
2023/10/05 03:29:45;;;;;;;18.17;2.90;;;;;;;;;;5037971;28;20427;-75
2023/10/05 03:32:13;;;;;;;19.83;2.40;;;;;;;;;;5033296;28;20524;-74
2023/10/05 03:34:53;;;;;;;17.60;2.70;;;;;;;;;;5035311;28;20422;-74
2023/10/05 03:37:21;;;;;;;20.15;3.10;;;;;;;;;;5047165;28;20411;-76
2023/10/05 03:42:31;;;;;;;18.35;2.65;;;;;;;;;;5030382;28;20406;-76
2023/10/05 03:45:03;;;;;;;16.80;2.13;;;;;;;;;;5029845;28;20427;-72
2023/10/05 03:47:31;;;;;;;22.52;2.70;;;;;;;;;;5030259;28;20896;-73
2023/10/05 03:49:58;;;;;;;18.08;2.88;;;;;;;;;;5030152;28;20794;-71
2023/10/05 03:52:32;;;;;;;17.58;2.28;;;;;;;;;;5033648;28;20415;-73
2023/10/05 03:55:10;;;;;;;17.10;2.60;;;;;;;;;;5029742;28;20446;-73
2023/10/05 03:57:38;;;;;;;21.05;2.45;;;;;;;;;;5028245;28;20474;-72
2023/10/05 04:00:23;;;;;;;19.95;3.63;;;;;;;;;;5030143;28;20494;-73
2023/10/05 04:02:52;;;;;;;17.92;2.50;;;;;;;;;;5013452;28;20407;-72
2023/10/05 04:05:21;;;;;;;18.63;2.28;;;;;;;;;;5028969;28;20423;-74
2023/10/05 04:07:51;;;;;;;17.52;2.60;;;;;;;;;;5013395;28;20425;-72
2023/10/05 04:10:34;;;;;;;17.52;2.60;;;;;;;;;;5030904;28;20399;-74
2023/10/05 04:13:00;;;;;;;17.98;2.70;;;;;;;;;;5029606;28;20453;-71
2023/10/05 04:15:29;;;;;;;18.35;2.65;;;;;;;;;;5031347;28;20410;-73
2023/10/05 04:17:56;;;;;;;17.50;2.50;;;;;;;;;;5028550;28;20406;-75
2023/10/05 04:20:28;;;;;;;17.73;2.50;;;;;;;;;;5028088;28;20485;-71
2023/10/05 04:22:56;;;;;;;20.10;2.97;;;;;;;;;;5029219;28;20410;-71
2023/10/05 04:25:23;;;;;;;17.27;2.50;;;;;;;;;;5031008;28;20465;-73
2023/10/05 04:27:52;;;;;;;16.60;2.42;;;;;;;;;;5033905;28;20486;-75
2023/10/05 04:30:21;;;;;;;17.55;2.20;;;;;;;;;;5031573;28;20425;-73
2023/10/05 04:32:48;;;;;;;17.85;2.45;;;;;;;;;;5020824;28;20410;-72
2023/10/05 04:35:44;;;;;;;16.63;2.50;;;;;;;;;;5030783;28;20880;-73
2023/10/05 04:38:04;;;;;;;16.95;2.40;;;;;;;;;;5029469;28;20472;-73
2023/10/05 04:40:34;;;;;;;16.77;2.10;;;;;;;;;;5031192;28;20426;-72
2023/10/05 04:43:07;;;;;;;16.70;2.50;;;;;;;;;;5028264;28;20970;-72
2023/10/05 04:45:42;;;;;;;17.83;2.60;;;;;;;;;;4997060;28;20457;-74
2023/10/05 04:48:12;;;;;;;19.03;2.40;;;;;;;;;;5046075;28;20918;-73
2023/10/05 04:50:41;;;;;;;18.90;3.00;;;;;;;;;;5031790;28;20391;-72
2023/10/05 04:53:10;;;;;;;18.48;3.80;;;;;;;;;;5032561;28;20880;-72
2023/10/05 04:55:41;;;;;;;20.20;3.20;;;;;;;;;;5039921;28;20891;-73
2023/10/05 04:58:24;;;;;;;18.65;2.88;;;;;;;;;;5031542;28;20900;-73
2023/10/05 05:01:14;;;;;;;21.65;3.50;;;;;;;;;;5033124;28;20472;-72
2023/10/05 05:03:56;;;;;;;18.40;2.33;;;;;;;;;;5033474;28;20417;-74
2023/10/05 05:06:27;;;;;;;16.50;2.40;;;;;;;;;;5038731;28;20409;-74
2023/10/05 05:08:55;;;;;;;18.55;2.50;;;;;;;;;;5033576;28;20446;-72
2023/10/05 05:11:21;;;;;;;18.85;2.30;;;;;;;;;;5049190;28;20445;-74
2023/10/05 05:13:48;;;;;;;16.77;2.60;;;;;;;;;;5040226;28;20415;-72
2023/10/05 05:16:15;;;;;;;20.83;2.50;;;;;;;;;;5033456;28;20501;-70
2023/10/05 05:18:42;;;;;;;17.45;2.90;;;;;;;;;;5031986;28;21451;-72
2023/10/05 05:21:13;;;;;;;19.17;2.70;;;;;;;;;;5039501;28;20415;-74
2023/10/05 05:23:39;;;;;;;19.50;2.85;;;;;;;;;;5048270;28;20426;-73
2023/10/05 05:26:09;;;;;;;19.02;2.20;;;;;;;;;;5032959;28;20414;-73
2023/10/05 05:28:37;;;;;;;17.85;2.70;;;;;;;;;;5033956;28;20415;-74
2023/10/05 05:31:07;;;;;;;18.20;3.00;;;;;;;;;;5038491;28;20433;-75
2023/10/05 05:33:38;;;;;;;18.58;2.63;;;;;;;;;;5033371;28;21452;-74
2023/10/05 05:36:08;;;;;;;20.65;2.80;;;;;;;;;;5032578;28;20417;-72
2023/10/05 05:38:35;;;;;;;20.38;2.70;;;;;;;;;;5032502;28;20451;-73
2023/10/05 05:41:10;;;;;;;18.70;2.83;;;;;;;;;;5032009;28;20872;-74
2023/10/05 05:43:39;;;;;;;18.52;2.20;;;;;;;;;;5030439;28;20409;-71
2023/10/05 05:46:11;;;;;;;19.15;2.97;;;;;;;;;;5031725;28;20479;-74
2023/10/05 05:48:38;;;;;;;16.35;2.38;;;;;;;;;;5032554;28;20414;-73
2023/10/05 05:51:10;;;;;;;19.33;1.98;;;;;;;;;;5039624;28;20514;-71
2023/10/05 05:53:37;;;;;;;17.90;2.25;;;;;;;;;;5030841;28;20461;-73
2023/10/05 05:56:04;;;;;;;18.75;2.88;;;;;;;;;;5039838;28;20407;-73
2023/10/05 05:58:32;;;;;;;29.30;3.00;;;;;;;;;;5032812;28;20461;-74
2023/10/05 06:00:58;;;;;;;19.08;2.60;;;;;;;;;;5041619;28;20433;-72
2023/10/05 06:03:25;;;;;;;18.80;2.60;;;;;;;;;;5048292;28;20822;-72
2023/10/05 06:05:53;;;;;;;17.02;2.80;;;;;;;;;;5034470;28;20494;-73
2023/10/05 06:08:19;;;;;;;19.88;2.70;;;;;;;;;;5032556;28;20442;-72
2023/10/05 06:10:47;;;;;;;18.08;2.40;;;;;;;;;;5036143;28;20407;-73
2023/10/05 06:13:13;;;;;;;18.48;2.25;;;;;;;;;;5030864;28;20417;-73
2023/10/05 06:15:42;;;;;;;19.48;2.92;;;;;;;;;;5032593;28;21259;-74
2023/10/05 06:18:08;;;;;;;17.50;2.40;;;;;;;;;;5031070;28;20415;-72
2023/10/05 06:20:35;;;;;;;73.35;8.70;;;;;;;;;;5032910;28;20407;-72
2023/10/05 06:23:02;;;;;;;19.60;3.10;;;;;;;;;;5040126;28;20883;-72
2023/10/05 06:25:29;;;;;;;20.75;2.63;;;;;;;;;;5032541;28;20411;-75
2023/10/05 06:27:56;;;;;;;18.20;2.70;;;;;;;;;;5033148;28;20491;-72
2023/10/05 06:30:23;;;;;;;17.65;2.35;;;;;;;;;;5031069;28;21091;-73
2023/10/05 06:32:54;;;;;;;20.00;2.60;;;;;;;;;;5028790;28;20427;-76
2023/10/05 06:35:21;;;;;;;18.20;2.80;;;;;;;;;;5029442;28;20477;-73
2023/10/05 06:37:49;;;;;;;17.65;2.20;;;;;;;;;;5031401;28;20411;-72
2023/10/05 06:40:21;;;;;;;18.73;2.40;;;;;;;;;;5019928;28;20461;-72
2023/10/05 06:42:49;;;;;;;20.55;4.00;;;;;;;;;;5028944;28;20423;-74
2023/10/05 06:45:19;;;;;;;21.73;2.97;;;;;;;;;;5031084;28;20414;-71
2023/10/05 06:47:45;;;;;;;18.30;2.35;;;;;;;;;;5031844;28;20415;-73
2023/10/05 06:50:13;;;;;;;16.98;2.20;;;;;;;;;;5027598;28;20512;-74
2023/10/05 06:52:42;;;;;;;21.05;3.33;;;;;;;;;;5030437;28;20768;-73
2023/10/05 06:55:12;;;;;;;17.00;2.20;;;;;;;;;;5046776;28;20476;-73
2023/10/05 06:57:39;;;;;;;20.85;2.60;;;;;;;;;;5014617;28;20430;-73
2023/10/05 07:00:21;;;;;;;16.08;2.10;;;;;;;;;;5046956;28;20797;-74
2023/10/05 07:02:49;;;;;;;19.00;2.20;;;;;;;;;;5028730;28;20447;-75
2023/10/05 07:05:17;;;;;;;20.05;2.30;;;;;;;;;;5031617;28;20407;-74
2023/10/05 07:07:43;;;;;;;20.10;2.30;;;;;;;;;;5034764;28;20900;-75
2023/10/05 07:10:13;;;;;;;19.65;2.28;;;;;;;;;;5030057;28;20419;-72
2023/10/05 07:12:46;;;;;;;19.35;2.63;;;;;;;;;;5028197;28;20429;-72
2023/10/05 07:15:13;;;;;;;18.40;2.15;;;;;;;;;;5037671;28;20422;-73
2023/10/05 07:17:40;;;;;;;18.92;2.88;;;;;;;;;;5031522;28;20403;-74
2023/10/05 07:20:11;;;;;;;17.50;2.40;;;;;;;;;;5031125;28;20422;-74
2023/10/05 07:22:40;;;;;;;17.60;2.70;;;;;;;;;;5031323;28;20496;-72
2023/10/05 07:40:42;;;;;;;19.35;2.40;;;;;;;;;;5031707;28;20363;-73
2023/10/05 07:43:08;;;;;;;18.07;2.20;;;;;;;;;;5020701;28;20429;-74
2023/10/05 07:45:37;;;;;;;20.27;2.70;;;;;;;;;;5030173;28;20418;-73
2023/10/05 07:48:06;;;;;;;18.45;2.60;;;;;;;;;;5038215;28;20464;-72
2023/10/05 07:50:34;;;;;;;17.55;2.35;;;;;;;;;;5029337;28;20768;-73
2023/10/05 07:53:00;;;;;;;17.65;2.70;;;;;;;;;;5033629;28;20498;-74
2023/10/05 07:55:27;;;;;;;20.30;2.58;;;;;;;;;;5030878;28;20418;-73
2023/10/05 07:57:56;;;;;;;19.77;2.30;;;;;;;;;;5029550;28;20419;-73
2023/10/05 08:00:22;;;;;;;16.77;2.00;;;;;;;;;;5030796;28;20779;-73
2023/10/05 08:02:49;;;;;;;16.20;2.30;;;;;;;;;;5030665;28;20450;-73
2023/10/05 08:05:16;;;;;;;16.80;2.53;;;;;;;;;;5045202;28;20415;-72
2023/10/05 08:07:44;;;;;;;18.27;2.60;;;;;;;;;;5029386;28;20415;-73
2023/10/05 08:10:15;;;;;;;17.23;2.10;;;;;;;;;;5029062;28;20461;-72
2023/10/05 08:12:43;;;;;;;16.90;2.00;;;;;;;;;;5033370;28;20400;-72
2023/10/05 08:15:18;;;;;;;17.50;2.70;;;;;;;;;;5028042;28;20911;-74
2023/10/05 08:17:45;;;;;;;20.50;2.53;;;;;;;;;;5044203;28;20461;-73
2023/10/05 08:20:12;;;;;;;17.15;2.17;;;;;;;;;;5028407;28;20409;-73
2023/10/05 08:22:39;;;;;;;18.40;2.50;;;;;;;;;;5028825;28;20411;-74
2023/10/05 08:25:11;;;;;;;20.50;2.50;;;;;;;;;;5033476;28;20421;-72
2023/10/05 08:27:38;;;;;;;17.92;2.42;;;;;;;;;;5034245;28;20427;-74
2023/10/05 08:30:05;;;;;;;17.70;2.78;;;;;;;;;;5034763;28;20941;-74
2023/10/05 08:32:34;;;;;;;17.88;2.75;;;;;;;;;;5033283;28;20459;-71
2023/10/05 08:35:07;;;;;;;18.00;2.70;;;;;;;;;;5034090;28;20879;-71
2023/10/05 08:37:34;;;;;;;17.33;2.20;;;;;;;;;;5019345;28;20523;-73
2023/10/05 08:40:05;;;;;;;17.35;1.80;;;;;;;;;;5034312;28;20410;-73
2023/10/05 08:42:34;;;;;;;19.90;2.60;;;;;;;;;;5039848;28;20965;-74
2023/10/05 08:45:01;;;;;;;21.77;2.45;;;;;;;;;;5032417;28;20489;-73
2023/10/05 08:47:28;;;;;;;22.27;2.53;;;;;;;;;;5033537;28;20439;-74
2023/10/05 08:49:56;;;;;;;18.85;2.55;;;;;;;;;;5049518;28;20900;-73
2023/10/05 08:52:22;;;;;;;17.00;2.10;;;;;;;;;;5041224;28;20979;-75
2023/10/05 08:54:51;;;;;;;20.70;2.20;;;;;;;;;;5033062;28;20524;-73
2023/10/05 08:57:17;;;;;;;18.85;2.72;;;;;;;;;;5034217;28;20418;-73
2023/10/05 08:59:47;;;;;;;20.85;2.00;;;;;;;;;;5033878;28;20410;-74
2023/10/05 09:02:24;;;;;;;18.75;3.10;;;;;;;;;;5039382;28;20431;-71
2023/10/05 09:04:55;;;;;;;18.38;2.50;;;;;;;;;;5048786;28;20659;-74
2023/10/05 09:07:35;;;;;;;17.50;2.20;;;;;;;;;;5032463;28;20501;-71
2023/10/05 09:10:05;;;;;;;19.50;2.30;;;;;;;;;;5032780;28;20561;-74
2023/10/05 09:12:35;;;;;;;21.70;3.00;;;;;;;;;;5037450;28;20442;-72
2023/10/05 09:15:21;;;;;;;16.55;2.40;;;;;;;;;;5033908;28;20836;-73
2023/10/05 09:17:58;;;;;;;18.00;1.98;;;;;;;;;;5030847;28;20429;-74
2023/10/05 09:20:32;;;;;;;18.42;2.17;;;;;;;;;;5031926;28;20465;-73
2023/10/05 09:23:01;;;;;;;17.58;2.20;;;;;;;;;;5030540;28;20423;-74
2023/10/05 09:25:31;;;;;;;19.63;2.70;;;;;;;;;;5021143;28;20415;-74
2023/10/05 09:28:07;;;;;;;19.90;2.85;;;;;;;;;;5033548;28;20418;-74
2023/10/05 09:30:45;;;;;;;17.00;1.90;;;;;;;;;;5031048;28;20428;-74
2023/10/05 09:33:18;;;;;;;23.90;2.53;;;;;;;;;;5017677;28;20413;-73
2023/10/05 09:35:46;;;;;;;21.70;2.80;;;;;;;;;;5030795;28;20411;-74
2023/10/05 09:38:17;;;;;;;19.05;2.17;;;;;;;;;;5038367;28;20415;-74
2023/10/05 09:40:47;;;;;;;19.50;2.40;;;;;;;;;;5033874;28;20480;-72
2023/10/05 09:43:14;;;;;;;18.20;2.30;;;;;;;;;;5030292;28;20515;-73
2023/10/05 09:45:43;;;;;;;18.20;2.40;;;;;;;;;;5039421;28;20403;-72
2023/10/05 09:48:10;;;;;;;18.48;2.30;;;;;;;;;;5032711;28;20943;-73
2023/10/05 09:50:38;;;;;;;19.33;2.30;;;;;;;;;;5048284;28;20407;-73
2023/10/05 09:53:06;;;;;;;17.30;2.20;;;;;;;;;;5032742;28;20918;-71
2023/10/05 09:55:40;;;;;;;20.33;2.95;;;;;;;;;;5030069;28;20502;-72
2023/10/05 09:58:12;;;;;;;22.13;2.72;;;;;;;;;;5020555;28;20415;-75
2023/10/05 10:03:06;;;;;;;18.08;2.30;;;;;;;;;;5037750;28;20433;-73
2023/10/05 10:05:35;;;;;;;19.08;2.20;;;;;;;;;;5047281;28;20403;-74
2023/10/05 10:08:08;;;;;;;17.85;2.55;;;;;;;;;;5031234;28;20419;-72
2023/10/05 10:10:41;;;;;;;21.00;2.40;;;;;;;;;;5032241;28;20443;-74
2023/10/05 10:13:13;;;;;;;18.92;2.50;;;;;;;;;;5032074;28;20410;-72
2023/10/05 10:15:45;;;;;;;19.25;3.20;;;;;;;;;;5031086;28;20422;-74
2023/10/05 10:18:14;;;;;;;17.35;2.10;;;;;;;;;;5030269;28;20906;-74
2023/10/05 10:20:45;;;;;;;17.00;2.25;;;;;;;;;;5032549;28;20414;-74
2023/10/05 10:23:19;;;;;;;19.27;2.22;;;;;;;;;;5037818;28;20441;-77
2023/10/05 10:25:50;;;;;;;16.30;2.33;;;;;;;;;;5032638;28;20402;-76
2023/10/05 10:28:35;;;;;;;16.00;2.60;;;;;;;;;;5035889;28;20438;-76
2023/10/05 10:31:17;;;;;;;18.23;2.20;;;;;;;;;;5029751;28;20488;-75
2023/10/05 10:33:50;;;;;;;20.10;2.60;;;;;;;;;;5034499;28;20481;-75
2023/10/05 10:36:22;;;;;;;16.92;2.05;;;;;;;;;;5037412;28;20832;-76
2023/10/05 10:38:50;;;;;;;16.92;2.30;;;;;;;;;;5030133;28;20506;-75
2023/10/05 10:41:21;;;;;;;21.55;2.58;;;;;;;;;;5033465;28;20786;-76
2023/10/05 10:43:52;;;;;;;28.83;2.90;;;;;;;;;;5046111;28;20410;-76
2023/10/05 10:46:20;;;;;;;19.10;2.20;;;;;;;;;;5032353;28;20407;-75
2023/10/05 10:48:54;;;;;;;17.95;3.03;;;;;;;;;;5030240;28;20822;-76
2023/10/05 10:51:21;;;;;;;16.83;2.20;;;;;;;;;;5032026;28;20403;-74
2023/10/05 10:53:55;;;;;;;16.88;2.22;;;;;;;;;;5030389;28;20454;-75
2023/10/05 10:56:28;;;;;;;16.98;2.00;;;;;;;;;;5032420;28;20411;-75
2023/10/05 10:59:09;;;;;;;16.98;1.80;;;;;;;;;;5032438;28;20521;-77
2023/10/05 11:01:52;;;;;;;18.53;2.60;;;;;;;;;;5032726;28;20513;-75
2023/10/05 11:04:31;;;;;;;18.90;2.30;;;;;;;;;;5046041;28;20423;-74
2023/10/05 11:07:10;;;;;;;18.17;2.38;;;;;;;;;;5030569;28;20457;-72
2023/10/05 11:09:48;;;;;;;15.90;2.35;;;;;;;;;;5035733;28;20451;-73
2023/10/05 11:12:17;;;;;;;17.80;2.55;;;;;;;;;;5031472;28;20413;-74
2023/10/05 11:14:44;;;;;;;18.60;2.30;;;;;;;;;;5030566;28;20518;-72
2023/10/05 11:17:24;;;;;;;16.27;2.20;;;;;;;;;;5031584;28;20810;-71
2023/10/05 11:19:51;;;;;;;17.92;2.10;;;;;;;;;;5025256;28;20411;-72
2023/10/05 11:22:23;;;;;;;17.23;2.47;;;;;;;;;;5031036;28;20460;-72
2023/10/05 11:25:00;;;;;;;18.20;2.50;;;;;;;;;;5020856;28;20839;-72
2023/10/05 11:27:36;;;;;;;20.05;2.80;;;;;;;;;;5029204;28;20412;-72
2023/10/05 11:30:05;;;;;;;16.67;2.20;;;;;;;;;;5029601;28;20406;-72
2023/10/05 11:32:46;;;;;;;19.45;2.45;;;;;;;;;;5030989;28;20449;-71
2023/10/05 11:35:42;;;;;;;16.42;1.92;;;;;;;;;;5028626;28;20418;-72
2023/10/05 11:38:16;;;;;;;18.20;2.10;;;;;;;;;;5046345;28;20454;-72
2023/10/05 11:40:49;;;;;;;18.58;2.80;;;;;;;;;;5033978;28;20407;-72
2023/10/05 11:43:18;;;;;;;18.13;2.60;;;;;;;;;;5034346;28;20434;-73
2023/10/05 11:45:54;;;;;;;19.50;2.60;;;;;;;;;;5042834;28;20426;-74
2023/10/05 11:48:25;;;;;;;16.27;2.30;;;;;;;;;;5028786;28;20494;-72
2023/10/05 11:50:54;;;;;;;18.90;2.38;;;;;;;;;;5044401;28;20866;-72
2023/10/05 11:53:24;;;;;;;18.52;2.10;;;;;;;;;;5033046;28;20403;-74
2023/10/05 11:55:50;;;;;;;19.73;2.03;;;;;;;;;;5046410;28;20502;-73
2023/10/05 11:58:22;;;;;;;16.08;2.30;;;;;;;;;;5031042;28;20453;-73
2023/10/05 12:00:48;;;;;;;17.05;2.05;;;;;;;;;;5031118;28;20418;-72
2023/10/05 12:03:16;;;;;;;15.73;1.95;;;;;;;;;;5029620;28;20427;-76
2023/10/05 12:05:43;;;;;;;20.00;2.50;;;;;;;;;;5028565;28;20417;-76
2023/10/05 12:08:12;;;;;;;18.55;2.20;;;;;;;;;;5036986;28;20484;-76
2023/10/05 12:10:40;;;;;;;15.55;1.80;;;;;;;;;;5031016;28;20414;-77
2023/10/05 12:13:07;;;;;;;17.17;2.63;;;;;;;;;;5040873;28;20497;-77
2023/10/05 12:15:37;;;;;;;19.63;2.78;;;;;;;;;;5029665;28;20910;-77
2023/10/05 12:18:12;;;;;;;20.00;1.90;;;;;;;;;;5029445;28;20488;-76
2023/10/05 12:20:41;;;;;;;17.80;2.30;;;;;;;;;;5029549;28;20415;-77
2023/10/05 12:23:10;;;;;;;28.23;2.80;;;;;;;;;;5038495;28;20788;-75
2023/10/05 12:25:37;;;;;;;17.50;1.90;;;;;;;;;;5037020;28;20498;-75
2023/10/05 12:28:04;;;;;;;16.70;2.30;;;;;;;;;;5030968;28;20497;-76
2023/10/05 12:30:31;;;;;;;18.88;2.15;;;;;;;;;;5035939;28;20515;-77
2023/10/05 12:32:59;;;;;;;19.25;2.53;;;;;;;;;;5031582;28;20469;-76
2023/10/05 12:35:29;;;;;;;15.15;1.85;;;;;;;;;;5032407;28;20516;-77
2023/10/05 12:37:58;;;;;;;17.52;2.38;;;;;;;;;;5019615;28;20823;-77
2023/10/05 12:40:33;;;;;;;19.13;2.00;;;;;;;;;;5030949;28;20425;-77
2023/10/05 12:43:00;;;;;;;21.23;2.30;;;;;;;;;;5028822;28;20429;-76
2023/10/05 12:45:43;;;;;;;16.88;2.25;;;;;;;;;;5028163;28;20403;-76
2023/10/05 12:48:15;;;;;;;17.50;2.10;;;;;;;;;;5028998;28;20843;-77
2023/10/05 12:50:42;;;;;;;16.65;1.80;;;;;;;;;;5031553;28;20483;-76
2023/10/05 12:53:08;;;;;;;17.20;2.17;;;;;;;;;;5036588;28;20465;-77
2023/10/05 12:55:37;;;;;;;18.20;1.90;;;;;;;;;;5038628;28;20498;-75
2023/10/05 12:58:04;;;;;;;20.25;2.40;;;;;;;;;;5032066;28;20896;-76
2023/10/05 13:00:44;;;;;;;19.45;2.20;;;;;;;;;;5030698;28;20865;-74
2023/10/05 13:03:12;;;;;;;17.00;1.80;;;;;;;;;;5030956;28;20422;-77
2023/10/05 13:05:43;;;;;;;17.70;2.00;;;;;;;;;;5036925;28;20421;-76
2023/10/05 13:08:11;;;;;;;18.85;2.10;;;;;;;;;;5030135;28;20411;-75
2023/10/05 13:10:38;;;;;;;19.00;1.80;;;;;;;;;;5035102;28;20434;-77
2023/10/05 13:13:17;;;;;;;18.38;1.90;;;;;;;;;;5034329;28;20411;-75
2023/10/05 13:15:45;;;;;;;16.67;2.25;;;;;;;;;;5032085;28;20409;-77
2023/10/05 13:18:19;;;;;;;16.85;1.85;;;;;;;;;;5047256;28;20411;-75
2023/10/05 13:20:47;;;;;;;14.90;1.60;;;;;;;;;;5034157;28;20433;-78
2023/10/05 13:23:18;;;;;;;17.05;1.80;;;;;;;;;;5032722;28;20419;-76
2023/10/05 13:25:47;;;;;;;17.23;1.80;;;;;;;;;;5040915;28;20427;-77
2023/10/05 13:28:16;;;;;;;17.90;2.10;;;;;;;;;;5033640;28;20938;-76
2023/10/05 13:30:43;;;;;;;16.75;1.90;;;;;;;;;;5034460;28;20787;-76
2023/10/05 13:33:13;;;;;;;18.63;2.20;;;;;;;;;;5032310;28;20407;-76
2023/10/05 13:35:41;;;;;;;16.57;1.53;;;;;;;;;;5024065;28;20450;-76
2023/10/05 13:38:08;;;;;;;17.17;2.15;;;;;;;;;;5034193;28;20923;-73
2023/10/05 13:40:36;;;;;;;15.80;1.80;;;;;;;;;;5033765;28;20975;-76
2023/10/05 13:43:04;;;;;;;15.75;1.85;;;;;;;;;;5015650;28;20430;-78
2023/10/05 13:45:33;;;;;;;16.97;2.10;;;;;;;;;;5033556;28;20419;-76
2023/10/05 13:48:00;;;;;;;16.73;1.88;;;;;;;;;;5041887;28;20414;-78
2023/10/05 13:50:28;;;;;;;19.50;1.97;;;;;;;;;;5019599;28;20435;-77
2023/10/05 13:52:57;;;;;;;16.23;1.70;;;;;;;;;;5033315;28;20409;-77
2023/10/05 13:55:25;;;;;;;15.40;1.63;;;;;;;;;;5031995;28;20430;-77
2023/10/05 13:57:54;;;;;;;15.50;1.90;;;;;;;;;;5048699;28;20434;-77
2023/10/05 14:00:24;;;;;;;19.90;2.30;;;;;;;;;;5034460;28;20411;-79
2023/10/05 14:02:51;;;;;;;18.25;2.13;;;;;;;;;;5040041;28;20445;-78
2023/10/05 14:05:20;;;;;;;16.20;1.80;;;;;;;;;;5033599;28;20481;-79
2023/10/05 14:07:51;;;;;;;18.50;1.83;;;;;;;;;;5033557;28;20772;-76
2023/10/05 14:10:24;;;;;;;17.50;2.30;;;;;;;;;;5035531;28;20498;-76
2023/10/05 14:12:51;;;;;;;17.98;2.50;;;;;;;;;;5031728;28;20415;-77
2023/10/05 14:15:20;;;;;;;16.70;1.90;;;;;;;;;;5029991;28;20777;-80
2023/10/05 14:17:49;;;;;;;17.48;1.70;;;;;;;;;;5032213;28;20407;-77
2023/10/05 14:20:16;;;;;;;17.00;1.83;;;;;;;;;;5043513;28;20770;-77
2023/10/05 14:22:44;;;;;;;17.58;2.40;;;;;;;;;;5035241;28;20776;-76
2023/10/05 14:25:17;;;;;;;16.48;2.25;;;;;;;;;;5032393;28;20423;-76
2023/10/05 14:27:46;;;;;;;15.30;2.10;;;;;;;;;;5031924;28;20464;-77
2023/10/05 14:30:17;;;;;;;18.23;2.20;;;;;;;;;;5030599;28;20394;-75
2023/10/05 14:32:44;;;;;;;16.43;1.87;;;;;;;;;;5031567;28;20845;-77
2023/10/05 14:35:11;;;;;;;14.90;1.60;;;;;;;;;;5033691;28;20807;-76
2023/10/05 14:37:42;;;;;;;16.60;2.10;;;;;;;;;;5032717;28;20407;-76
2023/10/05 14:40:15;;;;;;;17.80;1.90;;;;;;;;;;5045988;28;20491;-75
2023/10/05 14:42:43;;;;;;;15.50;1.90;;;;;;;;;;5020498;28;20415;-77
2023/10/05 14:45:14;;;;;;;16.58;1.80;;;;;;;;;;5035546;28;20435;-77
2023/10/05 14:47:41;;;;;;;16.33;1.85;;;;;;;;;;5044991;28;20461;-77
2023/10/05 14:50:11;;;;;;;17.83;1.70;;;;;;;;;;5032753;28;20476;-74
2023/10/05 14:52:38;;;;;;;16.40;1.70;;;;;;;;;;5028925;28;20781;-77
2023/10/05 14:55:04;;;;;;;17.65;1.90;;;;;;;;;;5032678;28;20829;-76
2023/10/05 14:57:31;;;;;;;17.03;1.80;;;;;;;;;;5028204;28;20428;-75
2023/10/05 14:59:57;;;;;;;17.83;1.75;;;;;;;;;;5033979;28;20403;-75
2023/10/05 15:02:26;;;;;;;17.00;1.90;;;;;;;;;;5031999;28;20494;-74
2023/10/05 15:04:53;;;;;;;16.60;2.30;;;;;;;;;;5045080;28;20459;-76
2023/10/05 15:07:19;;;;;;;15.30;1.80;;;;;;;;;;5031089;28;20430;-78
2023/10/05 15:09:46;;;;;;;16.17;1.90;;;;;;;;;;5029801;28;20463;-74
2023/10/05 15:12:13;;;;;;;17.38;2.42;;;;;;;;;;5032473;28;20411;-77
2023/10/05 15:14:40;;;;;;;16.83;1.98;;;;;;;;;;5031250;28;20498;-75
2023/10/05 15:17:07;;;;;;;17.42;3.00;;;;;;;;;;5045720;28;20431;-74
2023/10/05 15:19:37;;;;;;;17.20;1.70;;;;;;;;;;5038623;28;20407;-72